createdAt,value
2023-03-26T00:01:21.409Z,16.48
2023-03-26T00:03:53.660Z,16.90
2023-03-26T00:06:23.154Z,17.15
2023-03-26T00:08:51.203Z,17.48
2023-03-26T00:11:20.294Z,17.38
2023-03-26T00:13:47.812Z,17.38
2023-03-26T00:16:18.174Z,17.80
2023-03-26T00:18:45.644Z,17.90
2023-03-26T00:21:15.255Z,18.20
2023-03-26T00:23:43.154Z,18.58
2023-03-26T00:26:11.282Z,18.98
2023-03-26T00:28:40.619Z,19.20
2023-03-26T00:31:12.949Z,19.48
2023-03-26T00:33:41.531Z,19.27
2023-03-26T00:36:16.809Z,19.02
2023-03-26T00:38:44.875Z,19.40
2023-03-26T00:41:34.081Z,19.30
2023-03-26T00:44:01.207Z,19.55
2023-03-26T00:46:30.697Z,18.92
2023-03-26T00:48:59.091Z,18.98
2023-03-26T00:51:27.333Z,18.65
2023-03-26T00:53:54.722Z,19.15
2023-03-26T00:56:21.715Z,19.05
2023-03-26T00:58:50.382Z,18.70
2023-03-26T01:01:28.465Z,18.70
2023-03-26T01:04:08.840Z,19.00
2023-03-26T01:06:42.283Z,19.20
2023-03-26T01:09:19.096Z,19.05
2023-03-26T01:11:47.077Z,18.75
2023-03-26T01:14:18.398Z,18.90
2023-03-26T01:16:50.133Z,18.85
2023-03-26T01:19:47.589Z,19.08
2023-03-26T01:22:19.000Z,18.98
2023-03-26T01:24:53.199Z,19.33
2023-03-26T01:27:59.229Z,19.20
2023-03-26T01:30:38.732Z,19.15
2023-03-26T01:33:26.442Z,18.95
2023-03-26T01:36:01.554Z,19.15
2023-03-26T01:38:46.834Z,19.27
2023-03-26T01:41:48.440Z,18.98
2023-03-26T01:44:27.928Z,19.45
2023-03-26T01:46:55.749Z,19.42
2023-03-26T01:49:22.880Z,18.77
2023-03-26T01:51:51.474Z,19.20
2023-03-26T01:54:22.167Z,19.05
2023-03-26T01:57:15.960Z,19.00
2023-03-26T02:00:07.167Z,18.95
2023-03-26T02:02:34.144Z,18.77
2023-03-26T02:05:28.696Z,19.05
2023-03-26T02:08:11.982Z,19.65
2023-03-26T02:10:45.504Z,19.50
2023-03-26T02:13:13.493Z,19.55
2023-03-26T02:15:41.572Z,19.50
2023-03-26T02:18:10.994Z,19.88
2023-03-26T02:20:38.285Z,20.00
2023-03-26T02:23:05.873Z,19.80
2023-03-26T02:25:35.313Z,19.38
2023-03-26T02:28:02.268Z,20.15
2023-03-26T02:30:29.851Z,20.25
2023-03-26T02:32:59.542Z,20.02
2023-03-26T02:35:26.820Z,20.15
2023-03-26T02:37:53.803Z,20.23
2023-03-26T02:40:22.514Z,20.45
2023-03-26T02:42:50.043Z,20.80
2023-03-26T02:45:17.122Z,19.88
2023-03-26T02:47:46.212Z,20.80
2023-03-26T02:50:13.249Z,20.88
2023-03-26T02:52:40.252Z,20.58
2023-03-26T02:55:07.610Z,20.73
2023-03-26T02:57:34.778Z,20.35
2023-03-26T03:00:14.206Z,20.25
2023-03-26T03:02:41.400Z,20.45
2023-03-26T03:05:08.912Z,20.13
2023-03-26T03:07:38.672Z,20.50
2023-03-26T03:10:08.729Z,20.88
2023-03-26T03:12:36.907Z,20.83
2023-03-26T03:15:04.358Z,21.20
2023-03-26T03:17:31.282Z,20.80
2023-03-26T03:19:58.350Z,20.85
2023-03-26T03:22:25.402Z,21.90
2023-03-26T03:24:52.398Z,21.67
2023-03-26T03:27:21.486Z,21.42
2023-03-26T03:29:48.453Z,21.05
2023-03-26T03:32:15.522Z,21.13
2023-03-26T03:34:42.588Z,21.30
2023-03-26T03:37:09.531Z,21.77
2023-03-26T03:39:36.483Z,20.70
2023-03-26T03:42:03.917Z,21.77
2023-03-26T03:44:30.864Z,21.52
2023-03-26T03:46:57.898Z,21.60
2023-03-26T03:49:24.870Z,21.42
2023-03-26T03:51:51.904Z,21.65
2023-03-26T03:54:18.968Z,20.95
2023-03-26T03:56:47.404Z,21.90
2023-03-26T03:59:15.565Z,21.98
2023-03-26T04:01:43.304Z,21.52
2023-03-26T04:04:10.797Z,24.67
2023-03-26T04:06:37.775Z,24.05
2023-03-26T04:09:05.434Z,24.50
2023-03-26T04:11:32.443Z,23.33
2023-03-26T04:13:59.536Z,22.20
2023-03-26T04:16:26.571Z,21.75
2023-03-26T04:18:53.592Z,22.10
2023-03-26T04:21:21.282Z,21.58
2023-03-26T04:23:48.286Z,21.75
2023-03-26T04:26:21.472Z,21.40
2023-03-26T04:28:55.341Z,22.10
2023-03-26T04:31:29.146Z,21.77
2023-03-26T04:34:26.380Z,21.70
2023-03-26T04:36:56.385Z,21.83
2023-03-26T04:39:23.418Z,21.70
2023-03-26T04:41:50.349Z,21.23
2023-03-26T04:44:22.481Z,22.17
2023-03-26T04:46:50.466Z,22.75
2023-03-26T04:49:17.420Z,21.55
2023-03-26T04:51:46.807Z,20.98
2023-03-26T04:54:16.398Z,21.50
2023-03-26T04:56:57.672Z,21.35
2023-03-26T04:59:30.567Z,20.98
2023-03-26T05:01:59.981Z,20.95
2023-03-26T05:04:29.604Z,21.05
2023-03-26T05:06:58.512Z,21.35
2023-03-26T05:09:26.476Z,20.63
2023-03-26T05:11:53.650Z,21.00
2023-03-26T05:14:21.080Z,20.88
2023-03-26T05:16:50.485Z,20.85
2023-03-26T05:19:17.565Z,21.65
2023-03-26T05:21:44.581Z,21.27
2023-03-26T05:24:11.577Z,22.63
2023-03-26T05:26:38.640Z,22.00
2023-03-26T05:29:05.856Z,21.40
2023-03-26T05:31:32.984Z,22.55
2023-03-26T05:34:00.708Z,21.92
2023-03-26T05:36:30.463Z,21.88
2023-03-26T05:38:57.499Z,21.33
2023-03-26T05:41:24.432Z,21.42
2023-03-26T05:43:51.485Z,21.23
2023-03-26T05:46:20.497Z,22.35
2023-03-26T05:48:47.769Z,22.38
2023-03-26T05:51:15.765Z,21.83
2023-03-26T05:53:43.214Z,22.02
2023-03-26T05:56:10.783Z,22.38
2023-03-26T05:58:38.370Z,21.23
2023-03-26T06:01:05.868Z,20.33
2023-03-26T06:03:34.937Z,21.10
2023-03-26T06:06:04.037Z,20.65
2023-03-26T06:08:31.386Z,20.80
2023-03-26T06:11:00.542Z,21.02
2023-03-26T06:13:27.612Z,21.33
2023-03-26T06:15:54.790Z,21.23
2023-03-26T06:18:23.117Z,20.83
2023-03-26T06:20:51.249Z,22.35
2023-03-26T06:23:19.171Z,19.48
2023-03-26T06:25:46.257Z,21.90
2023-03-26T06:28:13.449Z,21.55
2023-03-26T06:30:40.449Z,22.80
2023-03-26T06:33:07.812Z,21.40
2023-03-26T06:35:35.045Z,23.02
2023-03-26T06:38:02.306Z,24.35
2023-03-26T06:40:29.434Z,31.95
2023-03-26T06:43:09.521Z,29.52
2023-03-26T06:45:38.245Z,38.13
2023-03-26T06:48:05.666Z,34.60
2023-03-26T06:50:33.159Z,22.08
2023-03-26T06:53:00.450Z,22.50
2023-03-26T06:55:27.884Z,21.88
2023-03-26T06:57:56.051Z,26.20
2023-03-26T07:00:23.119Z,20.85
2023-03-26T07:02:50.386Z,24.52
2023-03-26T07:05:17.487Z,23.92
2023-03-26T07:07:46.541Z,21.98
2023-03-26T07:10:14.773Z,22.58
2023-03-26T07:12:42.580Z,19.58
2023-03-26T07:15:10.506Z,23.65
2023-03-26T07:17:37.749Z,19.40
2023-03-26T07:20:07.335Z,25.85
2023-03-26T07:22:35.655Z,19.05
2023-03-26T07:25:03.440Z,20.27
2023-03-26T07:27:51.896Z,19.08
2023-03-26T07:30:30.768Z,19.20
2023-03-26T07:33:27.232Z,19.13
2023-03-26T07:36:09.449Z,19.10
2023-03-26T07:38:51.757Z,19.95
2023-03-26T07:41:44.254Z,20.98
2023-03-26T07:44:48.232Z,24.35
2023-03-26T07:47:32.646Z,24.05
2023-03-26T07:50:00.388Z,23.50
2023-03-26T07:52:28.410Z,24.73
2023-03-26T07:54:56.319Z,22.55
2023-03-26T07:57:35.127Z,20.80
2023-03-26T08:00:15.300Z,20.90
2023-03-26T08:03:03.737Z,18.95
2023-03-26T08:05:39.086Z,19.17
2023-03-26T08:08:27.794Z,20.55
2023-03-26T08:11:15.190Z,19.40
2023-03-26T08:14:08.886Z,21.88
2023-03-26T08:16:56.490Z,20.58
2023-03-26T08:19:38.786Z,23.02
2023-03-26T08:22:50.835Z,21.08
2023-03-26T08:25:25.769Z,18.73
2023-03-26T08:28:01.734Z,18.05
2023-03-26T08:30:29.102Z,21.30
2023-03-26T08:32:59.328Z,23.15
2023-03-26T08:35:27.912Z,21.17
2023-03-26T08:37:54.854Z,22.50
2023-03-26T08:40:55.523Z,20.90
2023-03-26T08:43:25.604Z,18.95
2023-03-26T08:46:04.873Z,19.52
2023-03-26T08:48:59.422Z,20.02
2023-03-26T08:52:02.826Z,20.45
2023-03-26T08:54:38.859Z,19.17
2023-03-26T08:57:42.809Z,20.80
2023-03-26T09:00:34.881Z,19.10
2023-03-26T09:03:04.612Z,17.25
2023-03-26T09:05:59.712Z,17.98
2023-03-26T09:08:54.756Z,18.73
2023-03-26T09:11:53.742Z,18.60
2023-03-26T09:14:45.519Z,20.90
2023-03-26T09:17:41.665Z,21.13
2023-03-26T09:20:41.555Z,21.27
2023-03-26T09:23:26.621Z,22.13
2023-03-26T09:26:23.942Z,22.77
2023-03-26T09:29:02.139Z,21.88
2023-03-26T09:32:03.432Z,21.45
2023-03-26T09:34:42.351Z,21.70
2023-03-26T09:37:33.380Z,22.00
2023-03-26T09:40:16.420Z,22.67
2023-03-26T09:43:09.168Z,22.50
2023-03-26T09:46:12.803Z,22.85
2023-03-26T09:48:48.642Z,22.67
2023-03-26T09:51:33.376Z,23.08
2023-03-26T09:54:25.809Z,23.38
2023-03-26T09:56:58.809Z,23.67
2023-03-26T09:59:56.681Z,22.52
2023-03-26T10:02:23.624Z,21.55
2023-03-26T10:05:35.265Z,21.48
2023-03-26T10:08:20.538Z,20.73
2023-03-26T10:11:03.278Z,20.88
2023-03-26T10:13:51.235Z,21.15
2023-03-26T10:16:24.162Z,21.58
2023-03-26T10:18:57.104Z,22.15
2023-03-26T10:21:36.087Z,22.65
2023-03-26T10:24:36.576Z,22.80
2023-03-26T10:27:22.547Z,23.75
2023-03-26T10:29:51.140Z,25.08
2023-03-26T10:32:30.834Z,23.75
2023-03-26T10:35:21.902Z,22.25
2023-03-26T10:38:16.342Z,23.75
2023-03-26T10:41:12.090Z,24.38
2023-03-26T10:44:30.595Z,24.05
2023-03-26T10:47:16.126Z,22.15
2023-03-26T10:49:52.366Z,21.40
2023-03-26T10:52:27.417Z,22.30
2023-03-26T10:54:58.173Z,22.73
2023-03-26T10:57:34.519Z,21.98
2023-03-26T11:00:15.258Z,22.00
2023-03-26T11:03:05.015Z,20.88
2023-03-26T11:05:43.833Z,20.45
2023-03-26T11:08:44.146Z,20.48
2023-03-26T11:11:22.976Z,19.58
2023-03-26T11:14:07.274Z,21.17
2023-03-26T11:16:52.110Z,20.52
2023-03-26T11:19:59.355Z,20.25
2023-03-26T11:22:50.355Z,19.15
2023-03-26T11:25:46.931Z,17.52
2023-03-26T11:28:39.491Z,17.67
2023-03-26T11:31:25.562Z,17.30
2023-03-26T11:33:57.081Z,17.92
2023-03-26T11:36:30.578Z,17.98
2023-03-26T11:38:59.672Z,19.70
2023-03-26T11:41:28.624Z,18.05
2023-03-26T11:44:05.526Z,18.60
2023-03-26T11:46:35.518Z,18.30
2023-03-26T11:49:09.317Z,17.70
2023-03-26T11:51:38.388Z,18.95
2023-03-26T11:54:08.052Z,19.15
2023-03-26T11:56:35.113Z,18.05
2023-03-26T11:59:15.400Z,17.23
2023-03-26T12:01:44.163Z,18.65
2023-03-26T12:04:15.883Z,18.38
2023-03-26T12:06:57.812Z,18.40
2023-03-26T12:09:25.018Z,17.80
2023-03-26T12:11:57.159Z,18.08
2023-03-26T12:14:28.363Z,15.90
2023-03-26T12:17:05.894Z,18.55
2023-03-26T12:19:39.914Z,16.23
2023-03-26T12:22:26.281Z,15.27
2023-03-26T12:25:21.361Z,15.50
2023-03-26T12:28:24.914Z,16.20
2023-03-26T12:31:05.704Z,16.48
2023-03-26T12:33:35.021Z,16.50
2023-03-26T12:36:30.489Z,16.65
2023-03-26T12:39:16.024Z,16.65
2023-03-26T12:43:51.506Z,16.40
2023-03-26T12:44:54.974Z,17.38
2023-03-26T12:47:57.824Z,15.40
2023-03-26T12:50:34.637Z,15.98
2023-03-26T12:53:15.007Z,17.00
2023-03-26T12:56:19.922Z,16.15
2023-03-26T12:59:01.444Z,16.30
2023-03-26T13:01:43.589Z,15.43
2023-03-26T13:04:58.664Z,12.98
2023-03-26T13:07:42.072Z,14.02
2023-03-26T13:10:28.077Z,14.38
2023-03-26T13:13:24.431Z,14.05
2023-03-26T13:15:53.870Z,15.27
2023-03-26T13:18:43.893Z,16.55
2023-03-26T13:21:57.208Z,15.52
2023-03-26T13:24:27.215Z,14.48
2023-03-26T13:27:02.949Z,15.38
2023-03-26T13:30:01.074Z,15.07
2023-03-26T13:32:58.850Z,14.55
2023-03-26T13:35:35.142Z,15.20
2023-03-26T13:38:31.298Z,14.60
2023-03-26T13:41:22.438Z,14.98
2023-03-26T13:43:52.387Z,14.60
2023-03-26T13:46:33.712Z,14.80
2023-03-26T13:49:10.594Z,14.73
2023-03-26T13:52:04.384Z,14.30
2023-03-26T13:54:40.992Z,14.65
2023-03-26T13:57:24.298Z,13.18
2023-03-26T14:00:02.004Z,13.02
2023-03-26T14:02:39.194Z,13.07
2023-03-26T14:05:09.545Z,13.52
2023-03-26T14:08:19.484Z,12.85
2023-03-26T14:10:56.959Z,12.48
2023-03-26T14:13:27.013Z,13.30
2023-03-26T14:16:03.447Z,13.20
2023-03-26T14:18:52.530Z,13.10
2023-03-26T14:21:34.734Z,13.70
2023-03-26T14:24:35.872Z,13.27
2023-03-26T14:27:08.781Z,13.50
2023-03-26T14:30:12.404Z,13.73
2023-03-26T14:32:45.044Z,13.50
2023-03-26T14:35:45.893Z,13.57
2023-03-26T14:38:33.767Z,13.60
2023-03-26T14:41:26.890Z,14.35
2023-03-26T14:44:28.482Z,13.90
2023-03-26T14:47:15.803Z,13.15
2023-03-26T14:50:08.761Z,14.35
2023-03-26T14:53:01.461Z,14.07
2023-03-26T14:56:07.173Z,14.00
2023-03-26T14:59:06.984Z,13.93
2023-03-26T15:02:07.952Z,13.52
2023-03-26T15:04:59.542Z,13.35
2023-03-26T15:07:30.303Z,13.32
2023-03-26T15:10:22.768Z,13.75
2023-03-26T15:12:52.638Z,13.43
2023-03-26T15:15:22.461Z,13.38
2023-03-26T15:18:17.490Z,14.00
2023-03-26T15:21:11.549Z,15.15
2023-03-26T15:23:38.429Z,15.33
2023-03-26T15:26:24.274Z,14.88
2023-03-26T15:29:01.113Z,14.80
2023-03-26T15:31:38.798Z,14.63
2023-03-26T15:34:21.441Z,14.50
2023-03-26T15:37:10.832Z,13.98
2023-03-26T15:40:08.541Z,14.18
2023-03-26T15:42:51.690Z,14.30
2023-03-26T15:45:47.532Z,14.25
2023-03-26T15:48:25.967Z,15.10
2023-03-26T15:51:47.277Z,14.35
2023-03-26T15:54:35.752Z,14.63
2023-03-26T15:57:19.554Z,14.30
2023-03-26T16:00:19.347Z,14.80
2023-03-26T16:03:11.406Z,15.55
2023-03-26T16:05:53.979Z,14.48
2023-03-26T16:08:47.363Z,14.52
2023-03-26T16:11:15.601Z,14.18
2023-03-26T16:14:12.710Z,14.10
2023-03-26T16:16:48.862Z,13.95
2023-03-26T16:19:21.967Z,13.75
2023-03-26T16:22:07.686Z,13.98
2023-03-26T16:24:38.309Z,13.90
2023-03-26T16:27:14.260Z,13.95
2023-03-26T16:30:12.046Z,13.80
2023-03-26T16:32:46.859Z,14.05
2023-03-26T16:35:13.909Z,13.95
2023-03-26T16:37:50.134Z,13.45
2023-03-26T16:40:17.384Z,14.48
2023-03-26T16:43:22.111Z,15.02
2023-03-26T16:45:58.716Z,15.52
2023-03-26T16:48:25.633Z,14.80
2023-03-26T16:51:18.839Z,14.93
2023-03-26T16:53:52.293Z,15.10
2023-03-26T16:56:36.069Z,15.70
2023-03-26T16:59:28.507Z,14.70
2023-03-26T17:02:20.021Z,14.52
2023-03-26T17:04:51.694Z,13.88
2023-03-26T17:07:44.964Z,13.80
2023-03-26T17:10:14.688Z,14.60
2023-03-26T17:12:45.252Z,17.80
2023-03-26T17:15:21.091Z,14.20
2023-03-26T17:18:14.492Z,13.93
2023-03-26T17:20:55.972Z,13.77
2023-03-26T17:23:29.143Z,14.35
2023-03-26T17:26:24.119Z,13.90
2023-03-26T17:29:18.610Z,14.30
2023-03-26T17:32:01.419Z,14.85
2023-03-26T17:34:51.568Z,15.85
2023-03-26T17:37:21.529Z,15.90
2023-03-26T17:40:30.826Z,15.48
2023-03-26T17:43:04.487Z,15.63
2023-03-26T17:45:35.336Z,15.65
2023-03-26T17:48:10.455Z,16.05
2023-03-26T17:50:50.704Z,15.95
2023-03-26T17:53:28.558Z,16.30
2023-03-26T17:55:59.075Z,15.80
2023-03-26T17:58:42.728Z,15.90
2023-03-26T18:01:27.226Z,15.70
2023-03-26T18:04:03.050Z,15.10
2023-03-26T18:06:44.347Z,15.40
2023-03-26T18:09:29.822Z,15.25
2023-03-26T18:12:09.368Z,15.35
2023-03-26T18:14:55.708Z,15.02
2023-03-26T18:17:24.672Z,15.27
2023-03-26T18:20:06.107Z,15.75
2023-03-26T18:22:34.059Z,15.55
2023-03-26T18:25:03.281Z,15.60
2023-03-26T18:27:37.214Z,15.50
2023-03-26T18:30:16.859Z,15.77
2023-03-26T18:33:02.021Z,15.60
2023-03-26T18:35:46.301Z,15.45
2023-03-26T18:38:35.846Z,15.75
2023-03-26T18:41:08.177Z,15.38
2023-03-26T18:43:44.528Z,15.73
2023-03-26T18:46:14.680Z,15.82
2023-03-26T18:48:42.375Z,15.90
2023-03-26T18:51:10.055Z,16.27
2023-03-26T18:53:49.268Z,15.88
2023-03-26T18:56:35.704Z,15.93
2023-03-26T18:59:06.839Z,16.00
2023-03-26T19:01:37.433Z,15.27
2023-03-26T19:04:07.815Z,15.45
2023-03-26T19:06:38.571Z,15.63
2023-03-26T19:09:19.679Z,15.48
2023-03-26T19:11:57.261Z,15.75
2023-03-26T19:14:26.218Z,15.65
2023-03-26T19:16:59.519Z,15.85
2023-03-26T19:19:32.104Z,15.88
2023-03-26T19:22:00.238Z,15.88
2023-03-26T19:24:27.730Z,16.08
2023-03-26T19:26:55.175Z,16.30
2023-03-26T19:29:33.910Z,16.85
2023-03-26T19:32:17.626Z,16.75
2023-03-26T19:34:47.015Z,16.88
2023-03-26T19:37:18.450Z,16.30
2023-03-26T19:39:51.306Z,16.88
2023-03-26T19:42:43.048Z,16.77
2023-03-26T19:45:20.437Z,17.02
2023-03-26T19:47:57.315Z,16.70
2023-03-26T19:50:30.313Z,16.70
2023-03-26T19:53:17.809Z,16.63
2023-03-26T19:56:09.930Z,16.70
2023-03-26T19:58:37.097Z,16.65
2023-03-26T20:01:05.034Z,17.00
2023-03-26T20:03:43.449Z,16.98
2023-03-26T20:06:15.882Z,16.52
2023-03-26T20:08:43.193Z,16.70
2023-03-26T20:11:16.646Z,16.35
2023-03-26T20:13:43.776Z,16.85
2023-03-26T20:16:27.189Z,16.42
2023-03-26T20:18:57.337Z,16.70
2023-03-26T20:21:25.613Z,16.20
2023-03-26T20:23:55.692Z,17.00
2023-03-26T20:26:24.169Z,16.45
2023-03-26T20:28:53.370Z,16.15
2023-03-26T20:31:25.209Z,16.33
2023-03-26T20:33:54.145Z,16.23
2023-03-26T20:36:34.008Z,16.05
2023-03-26T20:39:06.194Z,16.13
2023-03-26T20:41:34.545Z,16.23
2023-03-26T20:44:03.799Z,16.00
2023-03-26T20:46:31.758Z,15.77
2023-03-26T20:49:00.051Z,16.17
2023-03-26T20:51:28.863Z,16.17
2023-03-26T20:53:56.525Z,15.60
2023-03-26T20:56:23.868Z,15.80
2023-03-26T20:59:03.698Z,15.30
2023-03-26T21:01:38.249Z,15.80
2023-03-26T21:04:06.010Z,15.18
2023-03-26T21:06:33.202Z,15.68
2023-03-26T21:09:00.538Z,15.48
2023-03-26T21:11:39.884Z,15.90
2023-03-26T21:14:21.266Z,15.90
2023-03-26T21:16:48.701Z,15.77
2023-03-26T21:19:16.094Z,15.82
2023-03-26T21:21:52.700Z,15.90
2023-03-26T21:24:24.875Z,15.88
2023-03-26T21:27:04.087Z,15.88
2023-03-26T21:29:32.218Z,16.00
2023-03-26T21:32:00.388Z,15.80
2023-03-26T21:34:27.771Z,16.25
2023-03-26T21:36:55.743Z,15.75
2023-03-26T21:39:23.329Z,15.90
2023-03-26T21:42:04.761Z,16.10
2023-03-26T21:44:33.213Z,15.77
2023-03-26T21:47:00.467Z,15.70
2023-03-26T21:49:27.866Z,15.85
2023-03-26T21:51:55.161Z,15.60
2023-03-26T21:54:27.122Z,15.68
2023-03-26T21:57:21.999Z,15.55
2023-03-26T21:59:54.630Z,15.30
2023-03-26T22:02:27.070Z,15.05
2023-03-26T22:05:02.410Z,15.25
2023-03-26T22:08:02.147Z,15.50
2023-03-26T22:10:30.285Z,15.48
2023-03-26T22:12:58.103Z,15.15
2023-03-26T22:15:26.920Z,15.10
2023-03-26T22:17:55.847Z,15.38
2023-03-26T22:20:28.110Z,15.60
2023-03-26T22:22:55.907Z,15.60
2023-03-26T22:25:24.148Z,15.60
2023-03-26T22:27:51.718Z,15.18
2023-03-26T22:30:20.906Z,15.73
2023-03-26T22:32:48.544Z,15.48
2023-03-26T22:35:15.800Z,15.23
2023-03-26T22:37:43.142Z,15.35
2023-03-26T22:40:13.049Z,15.32
2023-03-26T22:42:41.051Z,15.10
2023-03-26T22:45:09.442Z,14.88
2023-03-26T22:47:36.704Z,15.10
2023-03-26T22:50:07.492Z,15.00
2023-03-26T22:52:35.610Z,15.15
2023-03-26T22:55:03.519Z,16.00
2023-03-26T22:57:30.808Z,16.80
2023-03-26T23:00:07.617Z,16.60
2023-03-26T23:02:34.697Z,16.73
2023-03-26T23:05:01.738Z,16.88
2023-03-26T23:07:28.782Z,17.15
2023-03-26T23:09:55.829Z,17.02
2023-03-26T23:12:23.006Z,17.50
2023-03-26T23:14:53.081Z,17.48
2023-03-26T23:17:20.267Z,18.35
2023-03-26T23:19:47.282Z,18.90
2023-03-26T23:22:14.216Z,19.30
2023-03-26T23:24:41.545Z,19.35
2023-03-26T23:27:08.877Z,19.52
2023-03-26T23:29:36.563Z,19.50
2023-03-26T23:32:03.780Z,19.55
2023-03-26T23:34:52.546Z,18.95
2023-03-26T23:37:23.476Z,18.77
2023-03-26T23:39:51.668Z,18.45
2023-03-26T23:42:28.736Z,18.42
2023-03-26T23:44:57.100Z,18.05
2023-03-26T23:47:24.539Z,18.80
2023-03-26T23:49:51.621Z,18.67
2023-03-26T23:52:18.929Z,19.33
2023-03-26T23:54:45.963Z,19.98
2023-03-26T23:57:13.952Z,19.67
2023-03-26T23:59:41.632Z,19.80
